createdAt,value
2023-02-23T00:01:30.233Z,100662.05
2023-02-23T00:03:59.066Z,100659.90
2023-02-23T00:06:28.420Z,100657.48
2023-02-23T00:08:55.879Z,100655.66
2023-02-23T00:11:23.031Z,100655.33
2023-02-23T00:13:51.264Z,100654.70
2023-02-23T00:16:21.717Z,100651.83
2023-02-23T00:18:53.612Z,100648.83
2023-02-23T00:21:30.019Z,100650.66
2023-02-23T00:24:01.791Z,100647.02
2023-02-23T00:26:33.946Z,100641.89
2023-02-23T00:29:02.983Z,100639.95
2023-02-23T00:31:30.315Z,100642.77
2023-02-23T00:34:03.221Z,100642.39
2023-02-23T00:36:35.009Z,100642.42
2023-02-23T00:39:17.571Z,100638.30
2023-02-23T00:41:45.680Z,100641.66
2023-02-23T00:44:15.920Z,100639.83
2023-02-23T00:46:44.660Z,100639.33
2023-02-23T00:49:13.499Z,100637.66
2023-02-23T00:51:41.805Z,100636.81
2023-02-23T00:54:11.738Z,100640.47
2023-02-23T00:56:39.889Z,100634.00
2023-02-23T00:59:07.565Z,100633.15
2023-02-23T01:01:35.235Z,100629.08
2023-02-23T01:04:02.541Z,100627.23
2023-02-23T01:06:30.899Z,100630.30
2023-02-23T01:08:58.305Z,100630.86
2023-02-23T01:11:29.057Z,100636.11
2023-02-23T01:13:58.751Z,100632.11
2023-02-23T01:16:29.026Z,100629.29
2023-02-23T01:18:59.469Z,100632.18
2023-02-23T01:21:29.842Z,100629.77
2023-02-23T01:23:57.646Z,100626.41
2023-02-23T01:26:36.790Z,100624.34
2023-02-23T01:29:08.949Z,100622.23
2023-02-23T01:31:38.247Z,100621.73
2023-02-23T01:34:06.842Z,100620.89
2023-02-23T01:36:36.640Z,100618.23
2023-02-23T01:39:07.700Z,100619.13
2023-02-23T01:41:36.943Z,100614.85
2023-02-23T01:44:28.370Z,100611.66
2023-02-23T01:46:56.344Z,100608.89
2023-02-23T01:49:26.367Z,100609.48
2023-02-23T01:52:00.821Z,100611.63
2023-02-23T01:54:33.595Z,100607.04
2023-02-23T01:57:03.046Z,100609.10
2023-02-23T01:59:35.183Z,100607.92
2023-02-23T02:02:05.447Z,100606.63
2023-02-23T02:04:44.515Z,100602.33
2023-02-23T02:07:29.227Z,100604.52
2023-02-23T02:10:13.887Z,100601.81
2023-02-23T02:12:55.679Z,100599.16
2023-02-23T02:15:28.253Z,100596.66
2023-02-23T02:18:30.889Z,100597.02
2023-02-23T02:21:40.869Z,100596.84
2023-02-23T02:24:26.732Z,100592.48
2023-02-23T02:27:13.702Z,100585.48
2023-02-23T02:30:14.079Z,100586.77
2023-02-23T02:33:04.165Z,100583.80
2023-02-23T02:36:01.706Z,100582.50
2023-02-23T02:38:53.966Z,100584.52
2023-02-23T02:41:25.913Z,100585.84
2023-02-23T02:44:11.855Z,100579.84
2023-02-23T02:46:45.172Z,100575.66
2023-02-23T02:49:15.325Z,100576.43
2023-02-23T02:52:00.824Z,100577.73
2023-02-23T02:54:42.365Z,100578.33
2023-02-23T02:57:12.255Z,100578.41
2023-02-23T03:00:06.949Z,100577.11
2023-02-23T03:02:56.937Z,100581.83
2023-02-23T03:05:49.497Z,100575.83
2023-02-23T03:09:00.120Z,100575.85
2023-02-23T03:11:56.516Z,100574.20
2023-02-23T03:14:59.567Z,100576.04
2023-02-23T03:18:06.847Z,100575.29
2023-02-23T03:20:52.924Z,100579.56
2023-02-23T03:23:41.101Z,100580.61
2023-02-23T03:26:33.458Z,100577.88
2023-02-23T03:29:30.507Z,100580.14
2023-02-23T03:32:37.911Z,100577.61
2023-02-23T03:35:51.343Z,100573.84
2023-02-23T03:38:51.793Z,100575.83
2023-02-23T03:41:40.921Z,100573.20
2023-02-23T03:44:34.426Z,100570.81
2023-02-23T03:47:24.402Z,100568.10
2023-02-23T03:50:12.481Z,100568.46
2023-02-23T03:53:05.998Z,100564.67
2023-02-23T03:55:54.855Z,100561.67
2023-02-23T03:58:47.298Z,100560.64
2023-02-23T04:01:35.803Z,100560.24
2023-02-23T04:04:23.518Z,100558.32
2023-02-23T04:07:10.983Z,100560.33
2023-02-23T04:09:56.746Z,100558.33
2023-02-23T04:12:52.068Z,100555.35
2023-02-23T04:15:28.935Z,100559.25
2023-02-23T04:17:56.828Z,100561.40
2023-02-23T04:20:25.978Z,100561.33
2023-02-23T04:22:53.185Z,100557.44
2023-02-23T04:25:23.024Z,100559.92
2023-02-23T04:27:50.936Z,100553.59
2023-02-23T04:30:20.733Z,100556.39
2023-02-23T04:32:48.008Z,100552.14
2023-02-23T04:35:15.384Z,100553.33
2023-02-23T04:37:42.534Z,100548.14
2023-02-23T04:40:10.213Z,100552.24
2023-02-23T04:42:40.014Z,100547.35
2023-02-23T04:45:08.575Z,100547.11
2023-02-23T04:47:35.696Z,100546.42
2023-02-23T04:50:03.744Z,100545.64
2023-02-23T04:52:31.589Z,100544.20
2023-02-23T04:54:58.681Z,100543.90
2023-02-23T04:57:27.018Z,100541.88
2023-02-23T04:59:54.140Z,100541.94
2023-02-23T05:02:21.415Z,100537.03
2023-02-23T05:04:48.653Z,100536.79
2023-02-23T05:07:15.819Z,100534.11
2023-02-23T05:09:42.983Z,100533.16
2023-02-23T05:12:10.165Z,100532.58
2023-02-23T05:14:37.301Z,100527.89
2023-02-23T05:17:04.450Z,100528.80
2023-02-23T05:19:31.597Z,100525.70
2023-02-23T05:21:58.826Z,100521.77
2023-02-23T05:24:26.063Z,100523.45
2023-02-23T05:26:53.999Z,100521.88
2023-02-23T05:29:21.152Z,100523.98
2023-02-23T05:31:48.832Z,100517.52
2023-02-23T05:34:17.073Z,100518.77
2023-02-23T05:36:44.185Z,100518.48
2023-02-23T05:39:11.285Z,100516.20
2023-02-23T05:41:38.406Z,100517.14
2023-02-23T05:44:05.691Z,100517.41
2023-02-23T05:46:32.954Z,100519.18
2023-02-23T05:49:01.935Z,100520.86
2023-02-23T05:51:31.987Z,100521.77
2023-02-23T05:53:58.997Z,100522.75
2023-02-23T05:56:26.587Z,100519.92
2023-02-23T05:58:58.063Z,100514.46
2023-02-23T06:01:27.025Z,100513.02
2023-02-23T06:03:54.610Z,100514.27
2023-02-23T06:06:22.484Z,100513.09
2023-02-23T06:08:49.966Z,100512.63
2023-02-23T06:11:17.675Z,100514.52
2023-02-23T06:13:44.990Z,100515.29
2023-02-23T06:16:12.260Z,100518.33
2023-02-23T06:18:39.942Z,100511.81
2023-02-23T06:21:07.570Z,100511.27
2023-02-23T06:23:34.774Z,100512.72
2023-02-23T06:26:01.928Z,100512.42
2023-02-23T06:28:29.842Z,100507.82
2023-02-23T06:30:57.698Z,100508.84
2023-02-23T06:33:25.628Z,100502.19
2023-02-23T06:35:54.828Z,100501.92
2023-02-23T06:38:22.533Z,100502.71
2023-02-23T06:40:49.688Z,100501.79
2023-02-23T06:43:16.965Z,100499.14
2023-02-23T06:45:44.152Z,100498.05
2023-02-23T06:48:11.263Z,100500.33
2023-02-23T06:50:38.470Z,100498.90
2023-02-23T06:53:06.077Z,100495.00
2023-02-23T06:55:33.191Z,100494.98
2023-02-23T06:58:00.278Z,100493.14
2023-02-23T07:00:27.580Z,100487.88
2023-02-23T07:02:54.658Z,100488.98
2023-02-23T07:05:21.782Z,100483.09
2023-02-23T07:07:48.927Z,100481.32
2023-02-23T07:10:16.089Z,100479.66
2023-02-23T07:12:43.226Z,100474.05
2023-02-23T07:15:10.842Z,100474.77
2023-02-23T07:17:38.036Z,100473.61
2023-02-23T07:20:05.645Z,100467.75
2023-02-23T07:22:34.275Z,100470.58
2023-02-23T07:25:01.343Z,100469.70
2023-02-23T07:27:28.513Z,100466.76
2023-02-23T07:29:55.662Z,100463.83
2023-02-23T07:32:23.166Z,100456.98
2023-02-23T07:34:52.143Z,100456.27
2023-02-23T07:37:21.559Z,100456.70
2023-02-23T07:39:48.645Z,100453.34
2023-02-23T07:42:15.773Z,100453.25
2023-02-23T07:44:42.856Z,100452.62
2023-02-23T07:47:11.044Z,100454.59
2023-02-23T07:49:38.277Z,100452.73
2023-02-23T07:52:05.459Z,100449.55
2023-02-23T07:54:32.703Z,100448.44
2023-02-23T07:57:00.360Z,100444.45
2023-02-23T07:59:27.540Z,100439.48
2023-02-23T08:01:54.641Z,100435.39
2023-02-23T08:04:21.778Z,100437.89
2023-02-23T08:06:48.998Z,100430.48
2023-02-23T08:09:16.144Z,100428.26
2023-02-23T08:11:43.976Z,100428.48
2023-02-23T08:14:11.341Z,100427.96
2023-02-23T08:16:38.816Z,100426.14
2023-02-23T08:19:05.981Z,100421.91
2023-02-23T08:21:32.972Z,100424.03
2023-02-23T08:24:00.233Z,100430.55
2023-02-23T08:26:27.325Z,100427.52
2023-02-23T08:28:55.049Z,100429.69
2023-02-23T08:31:24.454Z,100424.17
2023-02-23T08:33:53.135Z,100424.66
2023-02-23T08:36:23.338Z,100420.18
2023-02-23T08:38:50.809Z,100419.80
2023-02-23T08:41:18.232Z,100414.17
2023-02-23T08:43:45.671Z,100413.23
2023-02-23T08:46:13.428Z,100408.97
2023-02-23T08:48:40.813Z,100405.19
2023-02-23T08:51:08.767Z,100403.95
2023-02-23T08:53:36.633Z,100401.36
2023-02-23T08:56:07.344Z,100398.86
2023-02-23T08:58:36.235Z,100397.06
2023-02-23T09:01:03.962Z,100393.30
2023-02-23T09:03:33.848Z,100389.67
2023-02-23T09:06:22.973Z,100389.70
2023-02-23T09:08:50.340Z,100395.89
2023-02-23T09:11:17.873Z,100384.23
2023-02-23T09:13:45.155Z,100379.36
2023-02-23T09:16:13.953Z,100377.89
2023-02-23T09:18:41.693Z,100374.27
2023-02-23T09:21:19.240Z,100372.23
2023-02-23T09:23:48.395Z,100368.15
2023-02-23T09:26:18.132Z,100363.31
2023-02-23T09:28:46.275Z,100364.82
2023-02-23T09:31:18.886Z,100358.07
2023-02-23T09:33:46.586Z,100358.09
2023-02-23T09:36:16.683Z,100354.15
2023-02-23T09:38:46.794Z,100346.39
2023-02-23T09:41:28.185Z,100350.50
2023-02-23T09:44:22.303Z,100338.20
2023-02-23T09:47:13.302Z,100339.48
2023-02-23T09:49:45.192Z,100337.06
2023-02-23T09:52:19.457Z,100337.30
2023-02-23T09:54:47.442Z,100331.70
2023-02-23T09:57:20.242Z,100334.08
2023-02-23T09:59:47.541Z,100327.89
2023-02-23T10:02:34.997Z,100326.91
2023-02-23T10:05:05.513Z,100321.32
2023-02-23T10:07:47.270Z,100321.78
2023-02-23T10:10:24.064Z,100309.98
2023-02-23T10:13:12.411Z,100311.73
2023-02-23T10:16:21.684Z,100304.60
2023-02-23T10:19:04.146Z,100299.46
2023-02-23T10:21:38.594Z,100294.80
2023-02-23T10:24:13.599Z,100293.75
2023-02-23T10:26:54.589Z,100297.30
2023-02-23T10:29:33.013Z,100290.30
2023-02-23T10:32:05.459Z,100288.33
2023-02-23T10:34:32.614Z,100285.28
2023-02-23T10:37:06.269Z,100285.41
2023-02-23T10:39:34.667Z,100282.99
2023-02-23T10:42:07.913Z,100281.65
2023-02-23T10:44:35.170Z,100280.77
2023-02-23T10:47:08.360Z,100273.52
2023-02-23T10:49:43.725Z,100269.45
2023-02-23T10:52:13.732Z,100265.73
2023-02-23T10:54:51.544Z,100263.16
2023-02-23T10:57:31.104Z,100261.27
2023-02-23T11:00:01.152Z,100256.31
2023-02-23T11:02:31.034Z,100251.02
2023-02-23T11:05:00.922Z,100249.89
2023-02-23T11:07:31.543Z,100238.45
2023-02-23T11:10:00.307Z,100232.28
2023-02-23T11:12:36.649Z,100230.21
2023-02-23T11:15:50.450Z,100223.16
2023-02-23T11:18:23.682Z,100222.90
2023-02-23T11:20:52.167Z,100210.00
2023-02-23T11:23:29.430Z,100211.98
2023-02-23T11:26:03.190Z,100207.16
2023-02-23T11:28:41.903Z,100206.50
2023-02-23T11:31:16.275Z,100204.08
2023-02-23T11:33:44.305Z,100199.70
2023-02-23T11:36:27.787Z,100195.48
2023-02-23T11:39:30.229Z,100191.83
2023-02-23T11:42:15.183Z,100188.77
2023-02-23T11:44:42.450Z,100191.06
2023-02-23T11:47:19.365Z,100189.62
2023-02-23T11:49:48.548Z,100185.40
2023-02-23T11:52:22.043Z,100180.53
2023-02-23T11:55:12.782Z,100176.99
2023-02-23T11:57:39.897Z,100177.66
2023-02-23T12:00:22.726Z,100171.48
2023-02-23T12:02:58.811Z,100170.60
2023-02-23T12:05:33.852Z,100164.56
2023-02-23T12:08:11.682Z,100163.42
2023-02-23T12:10:52.106Z,100157.19
2023-02-23T12:13:27.673Z,100156.40
2023-02-23T12:16:17.809Z,100155.20
2023-02-23T12:19:06.559Z,100155.45
2023-02-23T12:21:53.878Z,100152.55
2023-02-23T12:24:36.236Z,100149.59
2023-02-23T12:27:23.294Z,100146.22
2023-02-23T12:30:13.993Z,100142.07
2023-02-23T12:32:41.120Z,100133.56
2023-02-23T12:35:16.676Z,100132.86
2023-02-23T12:37:50.973Z,100119.55
2023-02-23T12:40:30.202Z,100120.14
2023-02-23T12:43:11.997Z,100116.31
2023-02-23T12:45:49.361Z,100113.85
2023-02-23T12:48:35.488Z,100106.89
2023-02-23T12:51:09.774Z,100097.06
2023-02-23T12:53:42.633Z,100095.94
2023-02-23T12:56:19.080Z,100091.00
2023-02-23T12:59:17.463Z,100077.29
2023-02-23T13:02:03.099Z,100079.26
2023-02-23T13:04:55.492Z,100076.05
2023-02-23T13:07:41.926Z,100069.77
2023-02-23T13:10:30.497Z,100065.15
2023-02-23T13:13:06.689Z,100064.27
2023-02-23T13:15:52.263Z,100066.01
2023-02-23T13:18:26.462Z,100057.95
2023-02-23T13:20:56.528Z,100051.84
2023-02-23T13:23:35.636Z,100046.08
2023-02-23T13:26:30.637Z,100045.05
2023-02-23T13:29:08.038Z,100041.61
2023-02-23T13:31:41.005Z,100039.78
2023-02-23T13:34:40.757Z,100035.20
2023-02-23T13:37:11.703Z,100030.23
2023-02-23T13:39:49.118Z,100029.88
2023-02-23T13:42:19.213Z,100025.02
2023-02-23T13:45:28.492Z,100022.24
2023-02-23T13:47:55.631Z,100020.85
2023-02-23T13:50:42.870Z,100014.20
2023-02-23T13:53:32.146Z,100005.20
2023-02-23T13:56:07.018Z,100007.98
2023-02-23T13:58:35.729Z,100002.73
2023-02-23T14:01:17.274Z,100001.61
2023-02-23T14:03:54.480Z,100004.75
2023-02-23T14:06:25.060Z,100001.90
2023-02-23T14:08:59.220Z,99995.59
2023-02-23T14:11:46.256Z,99998.16
2023-02-23T14:14:42.341Z,99998.70
2023-02-23T14:17:15.402Z,100000.94
2023-02-23T14:20:06.505Z,99996.27
2023-02-23T14:22:35.422Z,99989.73
2023-02-23T14:25:34.112Z,99987.61
2023-02-23T14:28:49.235Z,99986.61
2023-02-23T14:31:21.032Z,99978.90
2023-02-23T14:33:49.876Z,99983.39
2023-02-23T14:36:26.375Z,99974.76
2023-02-23T14:38:53.514Z,99972.67
2023-02-23T14:41:30.147Z,99971.81
2023-02-23T14:44:27.149Z,99971.65
2023-02-23T14:47:15.949Z,99966.73
2023-02-23T14:49:55.291Z,99957.23
2023-02-23T14:52:24.699Z,99953.29
2023-02-23T14:54:52.750Z,99953.39
2023-02-23T14:57:25.839Z,99946.08
2023-02-23T14:59:58.558Z,99938.27
2023-02-23T15:02:28.168Z,99931.23
2023-02-23T15:04:56.094Z,99925.13
2023-02-23T15:07:28.053Z,99924.36
2023-02-23T15:09:57.484Z,99918.89
2023-02-23T15:12:28.728Z,99915.00
2023-02-23T15:15:10.262Z,99910.59
2023-02-23T15:17:41.663Z,99911.44
2023-02-23T15:20:16.811Z,99902.97
2023-02-23T15:22:48.714Z,99899.70
2023-02-23T15:25:20.562Z,99898.97
2023-02-23T15:27:48.737Z,99896.31
2023-02-23T15:30:31.183Z,99891.33
2023-02-23T15:33:11.811Z,99892.39
2023-02-23T15:36:28.437Z,99887.05
2023-02-23T15:39:00.379Z,99882.14
2023-02-23T15:41:33.284Z,99875.59
2023-02-23T15:44:14.904Z,99871.48
2023-02-23T15:46:44.402Z,99865.37
2023-02-23T15:49:19.482Z,99862.02
2023-02-23T15:51:51.219Z,99856.02
2023-02-23T15:54:27.104Z,99853.21
2023-02-23T15:57:02.751Z,99845.52
2023-02-23T15:59:31.291Z,99847.63
2023-02-23T16:02:00.183Z,99846.75
2023-02-23T16:04:33.116Z,99847.73
2023-02-23T16:07:07.641Z,99846.57
2023-02-23T16:09:39.250Z,99853.61
2023-02-23T16:12:17.785Z,99851.77
2023-02-23T16:14:55.587Z,99851.73
2023-02-23T16:17:44.370Z,99850.64
2023-02-23T16:20:26.119Z,99848.39
2023-02-23T16:22:55.056Z,99845.91
2023-02-23T16:25:26.434Z,99843.15
2023-02-23T16:27:59.989Z,99839.64
2023-02-23T16:30:32.842Z,99831.36
2023-02-23T16:33:20.849Z,99831.63
2023-02-23T16:35:51.517Z,99831.63
2023-02-23T16:38:28.292Z,99835.96
2023-02-23T16:40:55.607Z,99836.63
2023-02-23T16:43:23.035Z,99833.34
2023-02-23T16:45:50.669Z,99831.42
2023-02-23T16:48:18.921Z,99819.05
2023-02-23T16:50:46.406Z,99816.95
2023-02-23T16:53:13.632Z,99815.84
2023-02-23T16:55:47.040Z,99814.52
2023-02-23T16:58:19.897Z,99814.88
2023-02-23T17:00:48.092Z,99811.54
2023-02-23T17:03:21.589Z,99811.58
2023-02-23T17:05:48.715Z,99815.44
2023-02-23T17:08:15.944Z,99813.92
2023-02-23T17:10:46.009Z,99813.83
2023-02-23T17:13:23.624Z,99806.08
2023-02-23T17:15:53.894Z,99802.35
2023-02-23T17:20:57.886Z,99797.73
2023-02-23T17:23:27.539Z,99792.41
2023-02-23T17:25:58.602Z,99790.27
2023-02-23T17:28:25.962Z,99785.40
2023-02-23T17:30:54.300Z,99784.45
2023-02-23T17:33:21.556Z,99783.97
2023-02-23T17:35:48.817Z,99780.41
2023-02-23T17:38:16.416Z,99775.17
2023-02-23T17:40:44.219Z,99768.75
2023-02-23T17:43:11.527Z,99761.58
2023-02-23T17:45:38.786Z,99759.48
2023-02-23T17:48:06.004Z,99753.35
2023-02-23T17:50:33.185Z,99746.54
2023-02-23T17:53:00.431Z,99737.75
2023-02-23T17:55:27.596Z,99735.13
2023-02-23T17:57:54.946Z,99731.64
2023-02-23T18:00:22.302Z,99728.16
2023-02-23T18:02:49.439Z,99722.90
2023-02-23T18:09:50.268Z,99709.56
2023-02-23T18:12:19.378Z,99705.08
2023-02-23T18:14:47.070Z,99704.90
2023-02-23T18:17:15.691Z,99701.41
2023-02-23T18:19:45.752Z,99700.14
2023-02-23T18:22:14.050Z,99694.85
2023-02-23T18:24:42.046Z,99691.73
2023-02-23T18:27:09.325Z,99685.14
2023-02-23T18:29:36.649Z,99676.92
2023-02-23T18:32:07.096Z,99672.25
2023-02-23T18:34:35.027Z,99683.69
2023-02-23T18:37:03.624Z,99686.17
2023-02-23T18:39:32.098Z,99681.42
2023-02-23T18:42:00.663Z,99677.54
2023-02-23T18:44:28.137Z,99670.10
2023-02-23T18:46:55.429Z,99668.52
2023-02-23T18:49:24.592Z,99661.44
2023-02-23T18:51:51.922Z,99660.77
2023-02-23T18:54:19.453Z,99658.42
2023-02-23T18:56:48.550Z,99662.21
2023-02-23T18:59:15.859Z,99654.94
2023-02-23T19:01:45.490Z,99651.83
2023-02-23T19:04:13.346Z,99642.42
2023-02-23T19:06:43.874Z,99638.17
2023-02-23T19:09:14.465Z,99636.84
2023-02-23T19:11:42.985Z,99632.86
2023-02-23T19:14:16.649Z,99628.81
2023-02-23T19:16:45.569Z,99628.70
2023-02-23T19:19:13.791Z,99622.38
2023-02-23T19:21:41.283Z,99618.52
2023-02-23T19:24:08.546Z,99614.21
2023-02-23T19:26:37.584Z,99607.89
2023-02-23T19:29:05.136Z,99604.74
2023-02-23T19:31:32.760Z,99604.64
2023-02-23T19:34:03.406Z,99599.12
2023-02-23T19:36:31.881Z,99596.14
2023-02-23T19:39:06.270Z,99590.52
2023-02-23T19:41:34.280Z,99590.21
2023-02-23T19:44:01.746Z,99587.77
2023-02-23T19:46:29.474Z,99586.72
2023-02-23T19:48:57.072Z,99585.52
2023-02-23T19:51:24.709Z,99582.22
2023-02-23T19:53:55.848Z,99581.88
2023-02-23T19:56:28.113Z,99580.83
2023-02-23T19:58:57.019Z,99579.90
2023-02-23T20:01:27.749Z,99579.19
2023-02-23T20:03:55.914Z,99577.65
2023-02-23T20:06:30.617Z,99576.15
2023-02-23T20:09:00.211Z,99573.09
2023-02-23T20:11:28.040Z,99563.38
2023-02-23T20:13:56.522Z,99565.07
2023-02-23T20:16:29.550Z,99556.00
2023-02-23T20:19:00.647Z,99555.15
2023-02-23T20:21:30.760Z,99553.52
2023-02-23T20:23:59.748Z,99558.95
2023-02-23T20:26:30.255Z,99553.94
2023-02-23T20:28:58.401Z,99551.74
2023-02-23T20:31:29.499Z,99550.43
2023-02-23T20:33:59.188Z,99549.59
2023-02-23T20:36:26.640Z,99542.39
2023-02-23T20:38:53.825Z,99537.77
2023-02-23T20:41:21.538Z,99534.98
2023-02-23T20:43:49.156Z,99531.73
2023-02-23T20:46:17.324Z,99527.20
2023-02-23T20:48:44.665Z,99519.98
2023-02-23T20:51:18.018Z,99521.37
2023-02-23T20:53:48.244Z,99508.98
2023-02-23T20:56:17.838Z,99507.52
2023-02-23T20:58:46.024Z,99506.04
2023-02-23T21:01:20.763Z,99497.25
2023-02-23T21:03:51.402Z,99491.36
2023-02-23T21:06:23.138Z,99490.27
2023-02-23T21:08:51.129Z,99484.80
2023-02-23T21:11:20.051Z,99483.77
2023-02-23T21:13:47.643Z,99479.92
2023-02-23T21:16:17.190Z,99478.20
2023-02-23T21:18:44.557Z,99480.08
2023-02-23T21:21:14.059Z,99476.31
2023-02-23T21:23:45.131Z,99472.59
2023-02-23T21:26:16.209Z,99472.10
2023-02-23T21:28:45.538Z,99469.64
2023-02-23T21:31:14.550Z,99466.71
2023-02-23T21:33:43.257Z,99463.80
2023-02-23T21:36:11.450Z,99460.34
2023-02-23T21:38:40.731Z,99453.80
2023-02-23T21:41:08.906Z,99456.02
2023-02-23T21:43:37.378Z,99451.09
2023-02-23T21:46:12.333Z,99452.48
2023-02-23T21:48:39.699Z,99444.80
2023-02-23T21:51:11.494Z,99444.88
2023-02-23T21:53:39.381Z,99439.73
2023-02-23T21:56:15.685Z,99439.84
2023-02-23T21:58:55.081Z,99437.19
2023-02-23T22:01:29.432Z,99435.14
2023-02-23T22:03:57.844Z,99433.98
2023-02-23T22:06:28.344Z,99431.96
2023-02-23T22:08:56.860Z,99428.45
2023-02-23T22:11:26.939Z,99425.77
2023-02-23T22:14:00.232Z,99424.72
2023-02-23T22:16:31.868Z,99423.10
2023-02-23T22:19:03.638Z,99419.45
2023-02-23T22:21:37.016Z,99417.55
2023-02-23T22:24:05.590Z,99414.00
2023-02-23T22:26:34.618Z,99411.03
2023-02-23T22:29:02.009Z,99408.67
2023-02-23T22:31:29.224Z,99405.62
2023-02-23T22:33:56.933Z,99402.91
2023-02-23T22:36:24.317Z,99402.59
2023-02-23T22:38:51.670Z,99397.48
2023-02-23T22:41:19.539Z,99389.08
2023-02-23T22:43:47.268Z,99386.20
2023-02-23T22:46:16.568Z,99381.20
2023-02-23T22:48:45.162Z,99377.71
2023-02-23T22:51:14.138Z,99375.73
2023-02-23T22:53:41.429Z,99369.64
2023-02-23T22:56:08.733Z,99363.29
2023-02-23T22:58:36.862Z,99361.13
2023-02-23T23:01:06.373Z,99358.28
2023-02-23T23:03:36.717Z,99352.41
2023-02-23T23:06:08.140Z,99348.50
2023-02-23T23:08:38.824Z,99343.92
2023-02-23T23:11:09.669Z,99340.77
2023-02-23T23:13:44.877Z,99338.16
2023-02-23T23:16:25.537Z,99332.42
2023-02-23T23:19:04.123Z,99327.78
2023-02-23T23:21:33.367Z,99321.75
2023-02-23T23:24:03.194Z,99319.13
2023-02-23T23:26:31.962Z,99313.48
2023-02-23T23:29:01.271Z,99311.96
2023-02-23T23:31:30.742Z,99307.73
2023-02-23T23:34:07.363Z,99304.10
2023-02-23T23:36:46.398Z,99304.77
2023-02-23T23:39:16.410Z,99294.95
2023-02-23T23:41:48.064Z,99289.02
2023-02-23T23:44:29.377Z,99284.19
2023-02-23T23:46:58.452Z,99282.26
2023-02-23T23:49:26.021Z,99277.52
2023-02-23T23:51:56.633Z,99269.69
2023-02-23T23:54:27.407Z,99267.20
2023-02-23T23:56:55.548Z,99266.52
2023-02-23T23:59:25.321Z,99265.42
